createdAt,value
2018-09-06T00:01:56.939Z,23.10
2018-09-06T00:04:26.801Z,18.70
2018-09-06T00:06:56.060Z,20.72
2018-09-06T00:09:25.960Z,20.05
2018-09-06T00:11:55.200Z,19.55
2018-09-06T00:14:24.401Z,19.98
2018-09-06T00:16:55.633Z,18.17
2018-09-06T00:19:25.768Z,19.07
2018-09-06T00:21:55.094Z,22.60
2018-09-06T00:24:24.280Z,20.25
2018-09-06T00:26:53.634Z,19.77
2018-09-06T00:29:22.878Z,18.98
2018-09-06T00:31:52.091Z,18.92
2018-09-06T00:34:22.016Z,21.07
2018-09-06T00:36:52.336Z,18.07
2018-09-06T00:39:21.705Z,18.67
2018-09-06T00:41:51.398Z,20.23
2018-09-06T00:44:20.799Z,18.95
2018-09-06T00:46:51.157Z,20.27
2018-09-06T00:49:20.371Z,22.75
2018-09-06T00:51:49.914Z,21.02
2018-09-06T00:54:19.116Z,22.10
2018-09-06T00:56:48.766Z,23.42
2018-09-06T00:59:22.482Z,19.80
2018-09-06T01:01:51.783Z,18.07
2018-09-06T01:04:21.107Z,19.50
2018-09-06T01:06:51.487Z,18.92
2018-09-06T01:09:20.700Z,22.82
2018-09-06T01:11:49.927Z,19.87
2018-09-06T01:14:19.345Z,21.05
2018-09-06T01:16:49.529Z,21.23
2018-09-06T01:19:18.792Z,19.75
2018-09-06T01:21:48.013Z,21.73
2018-09-06T01:24:17.197Z,19.55
2018-09-06T01:26:47.492Z,20.70
2018-09-06T01:29:16.815Z,20.05
2018-09-06T01:31:46.036Z,19.80
2018-09-06T01:34:15.272Z,20.23
2018-09-06T01:36:47.341Z,17.73
2018-09-06T01:39:16.812Z,19.87
2018-09-06T01:41:46.014Z,19.40
2018-09-06T01:44:15.236Z,18.07
2018-09-06T01:46:44.980Z,20.12
2018-09-06T01:49:14.202Z,19.60
2018-09-06T01:51:43.441Z,23.05
2018-09-06T01:54:12.639Z,20.62
2018-09-06T01:56:41.827Z,19.35
2018-09-06T01:59:13.765Z,17.42
2018-09-06T02:01:43.266Z,21.20
2018-09-06T02:04:14.467Z,18.98
2018-09-06T02:06:43.905Z,23.75
2018-09-06T02:09:13.101Z,20.95
2018-09-06T02:11:42.400Z,19.62
2018-09-06T02:14:11.658Z,19.75
2018-09-06T02:16:40.922Z,20.12
2018-09-06T02:19:10.791Z,22.00
2018-09-06T02:21:40.037Z,19.12
2018-09-06T02:24:09.293Z,22.65
2018-09-06T02:26:38.593Z,19.32
2018-09-06T02:29:07.832Z,17.90
2018-09-06T02:31:37.067Z,17.60
2018-09-06T02:34:06.628Z,17.52
2018-09-06T02:36:35.920Z,21.55
2018-09-06T02:39:07.286Z,17.80
2018-09-06T02:41:36.492Z,17.92
2018-09-06T02:44:05.885Z,17.85
2018-09-06T02:46:35.095Z,16.60
2018-09-06T02:49:04.844Z,19.62
2018-09-06T02:51:34.065Z,21.73
2018-09-06T02:54:04.248Z,21.35
2018-09-06T02:56:33.498Z,21.60
2018-09-06T02:59:02.762Z,22.22
2018-09-06T03:01:32.111Z,18.57
2018-09-06T03:04:01.374Z,20.97
2018-09-06T03:06:30.989Z,22.82
2018-09-06T03:09:00.315Z,18.35
2018-09-06T03:11:34.693Z,18.23
2018-09-06T03:14:04.053Z,20.27
2018-09-06T03:16:34.364Z,16.37
2018-09-06T03:19:03.876Z,16.25
2018-09-06T03:21:33.095Z,18.70
2018-09-06T03:24:02.680Z,20.10
2018-09-06T03:26:32.588Z,18.27
2018-09-06T03:29:02.363Z,19.92
2018-09-06T03:31:31.659Z,17.82
2018-09-06T03:34:01.435Z,18.52
2018-09-06T03:36:30.760Z,16.15
2018-09-06T03:38:59.987Z,19.45
2018-09-06T03:41:29.224Z,18.37
2018-09-06T03:43:58.486Z,19.10
2018-09-06T03:46:28.022Z,18.12
2018-09-06T03:48:57.256Z,19.95
2018-09-06T03:51:26.969Z,21.05
2018-09-06T03:53:56.566Z,21.90
2018-09-06T03:56:25.948Z,20.90
2018-09-06T03:58:55.239Z,19.10
2018-09-06T04:01:24.497Z,19.80
2018-09-06T04:03:53.689Z,18.80
2018-09-06T04:06:22.982Z,18.52
2018-09-06T04:08:53.597Z,20.50
2018-09-06T04:11:22.857Z,19.82
2018-09-06T04:13:52.042Z,16.62
2018-09-06T04:16:22.361Z,19.75
2018-09-06T04:18:52.542Z,18.23
2018-09-06T04:21:21.804Z,17.40
2018-09-06T04:23:51.104Z,20.57
2018-09-06T04:26:20.615Z,16.00
2018-09-06T04:28:51.491Z,19.32
2018-09-06T04:31:20.749Z,18.52
2018-09-06T04:33:50.238Z,18.60
2018-09-06T04:36:19.636Z,19.85
2018-09-06T04:38:48.784Z,19.17
2018-09-06T04:41:18.030Z,25.20
2018-09-06T04:43:47.374Z,18.05
2018-09-06T04:46:16.504Z,18.05
2018-09-06T04:48:45.713Z,18.23
2018-09-06T04:51:15.524Z,18.75
2018-09-06T04:53:44.823Z,19.35
2018-09-06T04:56:15.107Z,17.07
2018-09-06T04:58:44.395Z,18.37
2018-09-06T05:01:13.683Z,21.57
2018-09-06T05:03:42.875Z,21.12
2018-09-06T05:06:12.268Z,21.30
2018-09-06T05:08:41.448Z,21.15
2018-09-06T05:11:11.331Z,24.37
2018-09-06T05:13:40.555Z,25.95
2018-09-06T05:16:11.388Z,23.50
2018-09-06T05:18:40.561Z,24.77
2018-09-06T05:21:09.807Z,21.77
2018-09-06T05:23:39.006Z,18.07
2018-09-06T05:26:09.039Z,19.77
2018-09-06T05:28:38.260Z,17.87
2018-09-06T05:31:07.503Z,19.48
2018-09-06T05:33:36.893Z,21.87
2018-09-06T05:36:06.455Z,17.60
2018-09-06T05:38:39.255Z,19.40
2018-09-06T05:41:08.428Z,17.32
2018-09-06T05:43:37.654Z,18.73
2018-09-06T05:46:07.461Z,17.50
2018-09-06T05:48:36.633Z,23.32
2018-09-06T05:51:07.380Z,17.85
2018-09-06T05:53:36.793Z,22.10
2018-09-06T05:56:06.251Z,22.35
2018-09-06T05:58:35.478Z,19.57
2018-09-06T06:01:04.664Z,17.52
2018-09-06T06:03:33.858Z,17.80
2018-09-06T06:06:03.772Z,19.35
2018-09-06T06:08:42.472Z,19.98
2018-09-06T06:11:12.109Z,19.30
2018-09-06T06:13:42.166Z,18.60
2018-09-06T06:16:12.100Z,21.90
2018-09-06T06:18:41.398Z,18.12
2018-09-06T06:21:12.399Z,18.57
2018-09-06T06:23:41.770Z,19.52
2018-09-06T06:26:11.177Z,22.13
2018-09-06T06:28:41.125Z,22.27
2018-09-06T06:31:11.745Z,20.65
2018-09-06T06:33:40.942Z,19.67
2018-09-06T06:36:11.213Z,22.40
2018-09-06T06:38:40.440Z,21.57
2018-09-06T06:41:09.642Z,20.80
2018-09-06T06:43:38.856Z,19.10
2018-09-06T06:46:08.121Z,19.60
2018-09-06T06:48:37.356Z,20.37
2018-09-06T06:51:06.744Z,20.50
2018-09-06T06:53:35.966Z,19.05
2018-09-06T06:56:05.395Z,19.90
2018-09-06T06:58:34.692Z,18.12
2018-09-06T07:01:03.913Z,19.70
2018-09-06T07:03:33.119Z,19.37
2018-09-06T07:06:03.258Z,17.90
2018-09-06T07:08:32.521Z,24.65
2018-09-06T07:11:01.760Z,19.85
2018-09-06T07:13:31.233Z,22.15
2018-09-06T07:16:00.521Z,20.50
2018-09-06T07:18:29.854Z,19.07
2018-09-06T07:20:59.116Z,19.00
2018-09-06T07:23:28.505Z,17.57
2018-09-06T07:25:57.754Z,21.17
2018-09-06T07:28:26.959Z,20.08
2018-09-06T07:30:56.492Z,18.10
2018-09-06T07:33:25.731Z,19.27
2018-09-06T07:35:54.939Z,17.70
2018-09-06T07:38:24.701Z,18.20
2018-09-06T07:40:53.960Z,19.25
2018-09-06T07:43:24.928Z,18.92
2018-09-06T07:45:54.137Z,17.75
2018-09-06T07:48:23.347Z,17.45
2018-09-06T07:50:52.600Z,16.00
2018-09-06T07:53:22.137Z,18.23
2018-09-06T07:55:51.563Z,14.07
2018-09-06T07:58:21.039Z,15.93
2018-09-06T08:00:50.229Z,16.10
2018-09-06T08:03:19.488Z,17.25
2018-09-06T08:05:48.707Z,17.60
2018-09-06T08:08:17.935Z,14.03
2018-09-06T08:10:47.194Z,15.30
2018-09-06T08:13:16.418Z,14.90
2018-09-06T08:15:45.840Z,15.13
2018-09-06T08:18:15.204Z,15.27
2018-09-06T08:20:44.468Z,16.00
2018-09-06T08:23:13.716Z,15.97
2018-09-06T08:25:42.965Z,15.30
2018-09-06T08:28:12.207Z,15.40
2018-09-06T08:30:41.500Z,15.67
2018-09-06T08:33:10.654Z,15.93
2018-09-06T08:35:39.897Z,15.37
2018-09-06T08:38:09.135Z,19.20
2018-09-06T08:40:38.622Z,14.80
2018-09-06T08:43:08.087Z,16.10
2018-09-06T08:45:38.410Z,15.97
2018-09-06T08:48:07.798Z,13.80
2018-09-06T08:50:37.083Z,14.90
2018-09-06T08:53:06.348Z,17.50
2018-09-06T08:55:35.601Z,14.67
2018-09-06T08:58:04.878Z,21.57
2018-09-06T09:00:37.557Z,12.77
2018-09-06T09:03:06.950Z,15.00
2018-09-06T09:05:36.448Z,14.23
2018-09-06T09:08:06.601Z,11.93
2018-09-06T09:10:36.207Z,11.63
2018-09-06T09:13:05.511Z,13.97
2018-09-06T09:15:36.653Z,13.67
2018-09-06T09:18:05.941Z,11.57
2018-09-06T09:20:35.101Z,12.97
2018-09-06T09:23:04.352Z,15.33
2018-09-06T09:25:33.873Z,13.13
2018-09-06T09:28:03.115Z,12.70
2018-09-06T09:30:32.397Z,12.20
2018-09-06T09:33:01.583Z,11.77
2018-09-06T09:35:31.039Z,12.50
2018-09-06T09:38:00.298Z,10.70
2018-09-06T09:40:29.543Z,14.10
2018-09-06T09:42:58.795Z,12.13
2018-09-06T09:45:28.040Z,11.83
2018-09-06T09:47:57.260Z,10.63
2018-09-06T09:52:54.896Z,11.07
2018-09-06T09:55:25.148Z,11.30
2018-09-06T09:57:54.338Z,12.47
2018-09-06T10:00:28.732Z,12.40
2018-09-06T10:03:03.294Z,11.30
2018-09-06T10:05:38.944Z,11.00
2018-09-06T10:08:13.398Z,11.17
2018-09-06T10:10:42.887Z,10.23
2018-09-06T10:13:12.236Z,10.30
2018-09-06T10:15:41.987Z,9.97
2018-09-06T10:18:11.337Z,10.20
2018-09-06T10:20:40.744Z,9.03
2018-09-06T10:23:09.935Z,9.80
2018-09-06T10:25:39.323Z,9.37
2018-09-06T10:28:08.626Z,8.70
2018-09-06T10:30:37.852Z,9.00
2018-09-06T10:33:07.109Z,11.97
2018-09-06T10:35:37.468Z,9.83
2018-09-06T10:38:06.667Z,8.43
2018-09-06T10:40:35.907Z,8.47
2018-09-06T10:43:05.184Z,8.17
2018-09-06T10:45:35.424Z,8.57
2018-09-06T10:48:04.614Z,9.00
2018-09-06T10:50:33.815Z,7.47
2018-09-06T10:53:03.037Z,9.47
2018-09-06T10:55:33.318Z,8.03
2018-09-06T10:58:02.616Z,8.50
2018-09-06T11:00:31.908Z,8.07
2018-09-06T11:03:01.260Z,6.90
2018-09-06T11:05:30.517Z,6.40
2018-09-06T11:08:00.003Z,7.00
2018-09-06T11:10:29.157Z,6.80
2018-09-06T11:12:58.344Z,7.43
2018-09-06T11:15:27.708Z,7.73
2018-09-06T11:17:56.922Z,7.70
2018-09-06T11:20:26.118Z,7.53
2018-09-06T11:22:55.310Z,7.80
2018-09-06T11:25:24.541Z,6.70
2018-09-06T11:27:53.765Z,7.60
2018-09-06T11:30:22.974Z,7.77
2018-09-06T11:32:52.211Z,6.50
2018-09-06T11:35:22.482Z,7.90
2018-09-06T11:37:51.671Z,6.47
2018-09-06T11:40:21.491Z,6.00
2018-09-06T11:42:50.916Z,7.47
2018-09-06T11:45:20.164Z,10.87
2018-09-06T11:47:49.648Z,9.03
2018-09-06T11:50:18.765Z,9.27
2018-09-06T11:52:48.051Z,6.17
2018-09-06T11:55:17.413Z,6.50
2018-09-06T11:57:46.737Z,6.00
2018-09-06T12:00:15.990Z,6.60
2018-09-06T12:02:45.366Z,6.70
2018-09-06T12:05:16.549Z,6.20
2018-09-06T12:07:45.830Z,6.20
2018-09-06T12:11:12.483Z,6.57
2018-09-06T12:13:41.771Z,5.47
2018-09-06T12:16:11.170Z,6.50
2018-09-06T12:18:40.589Z,6.17
2018-09-06T12:21:09.876Z,7.10
2018-09-06T12:23:39.067Z,6.83
2018-09-06T12:26:08.387Z,6.03
2018-09-06T12:28:37.602Z,6.30
2018-09-06T12:31:06.826Z,6.43
2018-09-06T12:33:36.211Z,6.90
2018-09-06T12:36:05.618Z,6.37
2018-09-06T12:38:34.846Z,7.37
2018-09-06T12:41:04.098Z,6.07
2018-09-06T12:43:33.395Z,6.00
2018-09-06T12:46:03.134Z,5.97
2018-09-06T12:48:32.326Z,6.83
2018-09-06T12:51:01.542Z,5.83
2018-09-06T12:53:31.046Z,7.27
2018-09-06T12:56:00.425Z,5.90
2018-09-06T12:58:29.647Z,6.50
2018-09-06T13:00:58.878Z,6.37
2018-09-06T13:03:28.104Z,6.00
2018-09-06T13:05:57.456Z,5.90
2018-09-06T13:08:26.631Z,6.20
2018-09-06T13:10:56.050Z,5.77
2018-09-06T13:13:25.205Z,6.53
2018-09-06T13:15:54.640Z,6.40
2018-09-06T13:18:23.846Z,5.67
2018-09-06T13:20:53.030Z,5.87
2018-09-06T13:23:22.292Z,6.13
2018-09-06T13:25:51.678Z,5.57
2018-09-06T13:28:21.642Z,5.67
2018-09-06T13:30:50.876Z,5.80
2018-09-06T13:33:20.198Z,5.80
2018-09-06T13:35:49.425Z,6.13
2018-09-06T13:38:18.612Z,5.50
2018-09-06T13:40:47.826Z,5.50
2018-09-06T13:43:17.024Z,6.40
2018-09-06T13:45:46.542Z,4.90
2018-09-06T13:48:16.037Z,8.00
2018-09-06T13:50:45.304Z,9.47
2018-09-06T13:53:14.511Z,7.27
2018-09-06T13:55:44.758Z,6.80
2018-09-06T13:58:13.945Z,6.53
2018-09-06T14:00:43.146Z,7.43
2018-09-06T14:03:12.343Z,6.80
2018-09-06T14:05:42.613Z,7.20
2018-09-06T14:08:11.832Z,6.80
2018-09-06T14:10:41.012Z,5.70
2018-09-06T14:13:10.269Z,6.00
2018-09-06T14:15:39.745Z,6.33
2018-09-06T14:18:08.991Z,6.80
2018-09-06T14:20:38.205Z,6.83
2018-09-06T14:23:07.447Z,6.47
2018-09-06T14:25:36.866Z,5.97
2018-09-06T14:28:06.081Z,7.67
2018-09-06T14:30:35.265Z,5.70
2018-09-06T14:33:04.479Z,8.20
2018-09-06T14:35:34.790Z,7.57
2018-09-06T14:38:04.055Z,6.50
2018-09-06T14:40:33.507Z,8.43
2018-09-06T14:43:02.874Z,6.17
2018-09-06T14:45:34.204Z,6.43
2018-09-06T14:48:03.523Z,5.93
2018-09-06T14:50:32.758Z,7.30
2018-09-06T14:53:02.134Z,7.30
2018-09-06T14:55:31.375Z,7.20
2018-09-06T14:58:00.656Z,7.73
2018-09-06T15:00:29.846Z,6.90
2018-09-06T15:02:59.054Z,13.40
2018-09-06T15:05:29.269Z,10.40
2018-09-06T15:07:58.487Z,9.00
2018-09-06T15:10:27.665Z,8.40
2018-09-06T15:12:56.940Z,10.83
2018-09-06T15:15:27.185Z,9.23
2018-09-06T15:17:56.483Z,9.20
2018-09-06T15:20:25.736Z,10.73
2018-09-06T15:22:54.985Z,9.90
2018-09-06T15:25:24.304Z,9.97
2018-09-06T15:27:53.645Z,9.80
2018-09-06T15:30:22.755Z,10.17
2018-09-06T15:32:51.955Z,9.93
2018-09-06T15:35:21.379Z,8.53
2018-09-06T15:37:50.579Z,11.03
2018-09-06T15:40:19.867Z,8.97
2018-09-06T15:42:49.094Z,8.47
2018-09-06T15:45:19.333Z,7.83
2018-09-06T15:47:48.519Z,9.30
2018-09-06T15:50:19.399Z,8.67
2018-09-06T15:52:48.671Z,6.90
2018-09-06T15:55:19.569Z,10.30
2018-09-06T15:57:48.956Z,8.30
2018-09-06T16:00:18.201Z,8.67
2018-09-06T16:02:47.387Z,9.83
2018-09-06T16:05:16.653Z,8.77
2018-09-06T16:07:46.113Z,8.63
2018-09-06T16:10:15.398Z,9.10
2018-09-06T16:12:44.639Z,9.67
2018-09-06T16:15:13.941Z,7.90
2018-09-06T16:17:43.196Z,9.60
2018-09-06T16:20:12.436Z,8.07
2018-09-06T16:22:41.765Z,7.50
2018-09-06T16:25:12.699Z,14.20
2018-09-06T16:27:41.920Z,6.87
2018-09-06T16:30:13.355Z,9.10
2018-09-06T16:32:42.581Z,8.93
2018-09-06T16:35:11.991Z,9.85
2018-09-06T16:37:41.269Z,7.67
2018-09-06T16:40:10.659Z,9.40
2018-09-06T16:42:41.239Z,14.03
2018-09-06T16:45:12.534Z,8.30
2018-09-06T16:47:41.808Z,8.70
2018-09-06T16:50:11.065Z,8.67
2018-09-06T16:52:41.396Z,7.30
2018-09-06T16:55:12.089Z,9.93
2018-09-06T16:57:41.416Z,7.80
2018-09-06T17:00:12.112Z,8.27
2018-09-06T17:02:41.408Z,8.57
2018-09-06T17:05:10.799Z,7.93
2018-09-06T17:07:40.118Z,9.03
2018-09-06T17:10:11.272Z,9.27
2018-09-06T17:12:40.558Z,6.60
2018-09-06T17:15:10.020Z,7.30
2018-09-06T17:17:39.356Z,7.73
2018-09-06T17:20:10.886Z,5.30
2018-09-06T17:22:40.203Z,5.63
2018-09-06T17:25:09.580Z,7.55
2018-09-06T17:27:39.061Z,5.70
2018-09-06T17:30:22.107Z,6.90
2018-09-06T17:32:56.542Z,9.73
2018-09-06T17:35:25.921Z,6.58
2018-09-06T17:37:56.237Z,9.83
2018-09-06T17:40:25.463Z,8.63
2018-09-06T17:42:54.737Z,9.15
2018-09-06T17:45:24.221Z,9.95
2018-09-06T17:47:53.452Z,9.25
2018-09-06T17:50:22.734Z,11.70
2018-09-06T17:52:52.295Z,11.28
2018-09-06T17:55:21.754Z,10.90
2018-09-06T17:57:53.999Z,12.90
2018-09-06T18:00:23.388Z,12.85
2018-09-06T18:02:52.665Z,12.90
2018-09-06T18:05:22.079Z,14.28
2018-09-06T18:07:51.643Z,13.50
2018-09-06T18:10:20.897Z,11.78
2018-09-06T18:12:50.192Z,11.83
2018-09-06T18:15:19.618Z,13.40
2018-09-06T18:17:48.947Z,14.40
2018-09-06T18:20:18.540Z,16.02
2018-09-06T18:22:47.731Z,15.25
2018-09-06T18:25:17.156Z,13.53
2018-09-06T18:27:46.434Z,12.82
2018-09-06T18:30:15.777Z,14.28
2018-09-06T18:32:45.134Z,13.10
2018-09-06T18:35:14.409Z,14.10
2018-09-06T18:37:43.720Z,12.88
2018-09-06T18:40:12.950Z,13.90
2018-09-06T18:42:42.244Z,14.00
2018-09-06T18:45:11.898Z,14.93
2018-09-06T18:47:41.182Z,17.95
2018-09-06T18:50:10.533Z,16.65
2018-09-06T18:52:39.798Z,16.37
2018-09-06T18:55:09.055Z,17.37
2018-09-06T18:57:38.320Z,14.90
2018-09-06T19:00:07.585Z,15.30
2018-09-06T19:02:36.828Z,17.12
2018-09-06T19:05:07.111Z,16.70
2018-09-06T19:07:36.372Z,14.70
2018-09-06T19:10:06.973Z,15.35
2018-09-06T19:12:36.251Z,14.75
2018-09-06T19:15:06.214Z,17.75
2018-09-06T19:17:35.907Z,26.07
2018-09-06T19:20:05.685Z,15.75
2018-09-06T19:22:34.882Z,16.60
2018-09-06T19:25:05.475Z,17.15
2018-09-06T19:27:35.311Z,15.63
2018-09-06T19:30:05.438Z,15.25
2018-09-06T19:32:34.731Z,14.93
2018-09-06T19:35:06.110Z,16.80
2018-09-06T19:37:35.302Z,15.70
2018-09-06T19:40:04.996Z,14.15
2018-09-06T19:42:34.901Z,15.33
2018-09-06T19:45:04.275Z,17.57
2018-09-06T19:47:35.101Z,16.17
2018-09-06T19:50:04.756Z,13.88
2018-09-06T19:52:34.143Z,12.95
2018-09-06T19:55:05.417Z,14.35
2018-09-06T19:57:34.872Z,14.35
2018-09-06T20:00:04.976Z,15.55
2018-09-06T20:02:34.746Z,13.80
2018-09-06T20:05:04.127Z,14.47
2018-09-06T20:07:33.354Z,15.15
2018-09-06T20:10:02.721Z,17.65
2018-09-06T20:12:31.973Z,15.20
2018-09-06T20:15:02.231Z,15.50
2018-09-06T20:17:32.992Z,13.98
2018-09-06T20:20:02.302Z,13.70
2018-09-06T20:22:31.669Z,15.88
2018-09-06T20:25:01.134Z,15.25
2018-09-06T20:27:30.343Z,14.35
2018-09-06T20:30:00.347Z,13.53
2018-09-06T20:32:32.051Z,13.90
2018-09-06T20:35:02.091Z,15.85
2018-09-06T20:37:31.309Z,13.90
2018-09-06T20:40:00.514Z,13.38
2018-09-06T20:42:29.825Z,14.80
2018-09-06T20:45:00.963Z,14.85
2018-09-06T20:47:32.931Z,12.43
2018-09-06T20:53:17.130Z,15.15
2018-09-06T20:55:46.918Z,14.80
2018-09-06T20:58:30.148Z,16.77
2018-09-06T21:01:29.061Z,16.40
2018-09-06T21:04:15.647Z,15.38
2018-09-06T21:07:31.294Z,15.25
2018-09-06T21:13:02.967Z,13.70
2018-09-06T21:15:52.185Z,17.10
2018-09-06T21:18:29.850Z,16.82
2018-09-06T21:21:17.131Z,14.10
2018-09-06T21:23:53.032Z,16.50
2018-09-06T21:26:22.762Z,17.05
2018-09-06T21:29:19.555Z,16.07
2018-09-06T21:32:14.872Z,14.78
2018-09-06T21:35:00.035Z,14.28
2018-09-06T21:37:56.889Z,14.70
2018-09-06T21:40:41.021Z,16.02
2018-09-06T21:43:10.393Z,13.75
2018-09-06T21:45:43.807Z,16.07
2018-09-06T21:48:13.134Z,15.48
2018-09-06T21:50:42.518Z,14.93
2018-09-06T21:53:11.767Z,13.13
2018-09-06T21:55:41.074Z,13.68
2018-09-06T21:58:10.261Z,16.80
2018-09-06T22:00:39.602Z,17.20
2018-09-06T22:10:30.273Z,16.48
2018-09-06T22:13:55.163Z,17.05
2018-09-06T22:23:49.756Z,16.80
2018-09-06T22:33:33.434Z,21.33
2018-09-06T22:36:02.987Z,22.10
2018-09-06T22:38:32.533Z,18.12
2018-09-06T22:41:02.581Z,19.92
2018-09-06T22:43:32.029Z,20.45
2018-09-06T22:46:05.999Z,19.95
2018-09-06T22:48:36.488Z,17.32
2018-09-06T22:51:06.098Z,19.00
2018-09-06T22:53:35.968Z,16.90
2018-09-06T22:56:05.734Z,16.35
2018-09-06T22:58:35.053Z,18.60
2018-09-06T23:01:05.253Z,16.52
2018-09-06T23:03:37.202Z,17.85
2018-09-06T23:06:06.939Z,14.55
2018-09-06T23:08:36.607Z,16.37
2018-09-06T23:14:51.238Z,13.62
2018-09-06T23:17:20.546Z,12.35
2018-09-06T23:20:03.354Z,13.83
2018-09-06T23:22:36.982Z,16.85
2018-09-06T23:25:08.603Z,14.10
2018-09-06T23:27:38.038Z,13.28
2018-09-06T23:30:07.535Z,14.58
2018-09-06T23:32:42.744Z,14.50
2018-09-06T23:35:27.664Z,17.12
2018-09-06T23:37:56.880Z,15.28
2018-09-06T23:40:26.190Z,14.95
2018-09-06T23:42:55.695Z,12.90
2018-09-06T23:45:25.066Z,13.88
2018-09-06T23:47:54.276Z,15.15
2018-09-06T23:50:23.832Z,15.38
2018-09-06T23:52:53.182Z,13.53
2018-09-06T23:55:22.580Z,15.50
2018-09-06T23:57:51.934Z,18.73
